首页
METAR-TAF:

METAR-TAF

机场 :

Fort Rucker, 阿拉巴马州, 美国

纬度: 31-21-32N, 经度: 085-44-54W, 海拔: 78米

当前天气观测

该预报发布于36分钟前的10:03 UTC
风速5节,风向东转东北
温度 21°C
湿度 100%
气压 1013 hPa
能見度: 11.3公里
少量云层高于2300英尺
散云层高于2900英尺
多云层高于3800英尺
阴天层高于4800英尺
小雨

METAR: KLOR 261003Z AUTO 06005KT 7SM -RA FEW023 SCT029 BKN038 OVC048 21/21 A2992 RMK AO2 SLP113

时间: 05:39 (10:39 UTC)


TAF: 丢失

超过4000个机场的气象观测和天气预报(METAR&TAF报告)。

可查询的气象台以黄色和红色小点在地图上表示。

将鼠标移到小点上方,可查看气象台名称。

然后点击查看天气观测和预报。

如需切换地图:点击带黑十字的绿色按钮放大地图;点击带横线的绿色按钮缩小地图;或者点击绿色箭头查看邻近地区的地图。


METAR-TAF: